sensor_id;sensor_type;location;lat;lon;timestamp;pressure;altitude;pressure_sealevel;temperature;humidity
39105;BME280;46464;51.154;13.812;2023-05-07T00:00:06;52248.88;;;-146.96;93.38
39105;BME280;46464;51.154;13.812;2023-05-07T00:02:35;52234.63;;;-146.96;93.21
39105;BME280;46464;51.154;13.812;2023-05-07T00:05:02;52224.47;;;-146.96;93.16
39105;BME280;46464;51.154;13.812;2023-05-07T00:07:29;52216.31;;;-146.96;93.50
39105;BME280;46464;51.154;13.812;2023-05-07T00:09:56;52234.63;;;-146.96;93.73
39105;BME280;46464;51.154;13.812;2023-05-07T00:12:22;52234.63;;;-146.96;93.99
39105;BME280;46464;51.154;13.812;2023-05-07T00:14:48;52212.25;;;-146.96;93.57
39105;BME280;46464;51.154;13.812;2023-05-07T00:17:15;52218.34;;;-146.96;93.53
39105;BME280;46464;51.154;13.812;2023-05-07T00:19:42;52234.63;;;-146.96;93.11
39105;BME280;46464;51.154;13.812;2023-05-07T00:22:08;52232.59;;;-146.96;93.34
39105;BME280;46464;51.154;13.812;2023-05-07T00:24:35;52234.63;;;-146.96;93.38
39105;BME280;46464;51.154;13.812;2023-05-07T00:27:01;52222.41;;;-146.96;93.80
39105;BME280;46464;51.154;13.812;2023-05-07T00:29:27;52242.78;;;-146.96;93.89
39105;BME280;46464;51.154;13.812;2023-05-07T00:31:54;52244.81;;;-146.96;93.84
39105;BME280;46464;51.154;13.812;2023-05-07T00:34:21;52254.97;;;-146.96;93.55
39105;BME280;46464;51.154;13.812;2023-05-07T00:36:47;52293.63;;;-146.96;93.11
39105;BME280;46464;51.154;13.812;2023-05-07T00:39:14;52226.50;;;-146.96;92.94
39105;BME280;46464;51.154;13.812;2023-05-07T00:41:41;52226.50;;;-146.96;92.73
39105;BME280;46464;51.154;13.812;2023-05-07T00:44:07;52244.81;;;-146.96;92.54
39105;BME280;46464;51.154;13.812;2023-05-07T00:46:34;52248.88;;;-146.96;92.45
39105;BME280;46464;51.154;13.812;2023-05-07T00:49:00;52261.09;;;-146.96;92.02
39105;BME280;46464;51.154;13.812;2023-05-07T00:51:28;52236.66;;;-146.96;91.67
39105;BME280;46464;51.154;13.812;2023-05-07T00:53:55;52224.47;;;-146.96;91.46
39105;BME280;46464;51.154;13.812;2023-05-07T00:56:22;52248.88;;;-146.96;91.23
39105;BME280;46464;51.154;13.812;2023-05-07T00:58:49;52234.63;;;-146.96;91.35
39105;BME280;46464;51.154;13.812;2023-05-07T01:01:16;52200.03;;;-146.96;90.91
39105;BME280;46464;51.154;13.812;2023-05-07T01:03:43;52206.16;;;-146.96;90.64
39105;BME280;46464;51.154;13.812;2023-05-07T01:06:10;52220.38;;;-146.96;91.11
39105;BME280;46464;51.154;13.812;2023-05-07T01:08:39;52218.34;;;-146.96;91.75
39105;BME280;46464;51.154;13.812;2023-05-07T01:11:07;52208.19;;;-146.96;91.97
39105;BME280;46464;51.154;13.812;2023-05-07T01:13:35;52250.91;;;-146.96;92.00
39105;BME280;46464;51.154;13.812;2023-05-07T01:16:02;52257.00;;;-146.96;92.13
39105;BME280;46464;51.154;13.812;2023-05-07T01:18:29;52263.13;;;-146.96;92.13
39105;BME280;46464;51.154;13.812;2023-05-07T01:20:59;52230.56;;;-146.96;91.89
39105;BME280;46464;51.154;13.812;2023-05-07T01:23:27;52248.88;;;-146.96;91.82
39105;BME280;46464;51.154;13.812;2023-05-07T01:25:54;52265.16;;;-146.96;92.02
39105;BME280;46464;51.154;13.812;2023-05-07T01:28:21;52234.63;;;-146.96;91.96
39105;BME280;46464;51.154;13.812;2023-05-07T01:30:54;52275.31;;;-146.96;92.21
39105;BME280;46464;51.154;13.812;2023-05-07T01:33:22;52240.75;;;-146.96;92.46
39105;BME280;46464;51.154;13.812;2023-05-07T01:35:53;52238.69;;;-146.96;92.39
39105;BME280;46464;51.154;13.812;2023-05-07T01:38:21;52240.75;;;-146.96;92.73
39105;BME280;46464;51.154;13.812;2023-05-07T01:40:49;52257.00;;;-146.96;92.48
39105;BME280;46464;51.154;13.812;2023-05-07T01:43:16;52277.34;;;-146.96;92.63
39105;BME280;46464;51.154;13.812;2023-05-07T01:45:44;52248.88;;;-146.96;93.21
39105;BME280;46464;51.154;13.812;2023-05-07T01:48:11;52244.81;;;-146.96;93.54
39105;BME280;46464;51.154;13.812;2023-05-07T01:50:39;52254.97;;;-146.96;93.87
39105;BME280;46464;51.154;13.812;2023-05-07T01:53:06;52226.50;;;-146.96;94.01
39105;BME280;46464;51.154;13.812;2023-05-07T01:55:32;52246.84;;;-146.96;93.65
39105;BME280;46464;51.154;13.812;2023-05-07T01:57:59;52289.56;;;-146.96;94.14
39105;BME280;46464;51.154;13.812;2023-05-07T02:00:25;52275.31;;;-146.96;94.35
39105;BME280;46464;51.154;13.812;2023-05-07T02:02:52;52248.88;;;-146.96;93.78
39105;BME280;46464;51.154;13.812;2023-05-07T02:05:19;52277.34;;;-146.96;93.84
39105;BME280;46464;51.154;13.812;2023-05-07T02:07:46;52267.19;;;-146.96;93.43
39105;BME280;46464;51.154;13.812;2023-05-07T02:10:12;52281.44;;;-146.96;93.19
39105;BME280;46464;51.154;13.812;2023-05-07T02:12:39;52242.78;;;-146.96;92.97
39105;BME280;46464;51.154;13.812;2023-05-07T02:15:06;52277.34;;;-146.96;93.12
39105;BME280;46464;51.154;13.812;2023-05-07T02:17:32;52244.81;;;-146.96;93.33
39105;BME280;46464;51.154;13.812;2023-05-07T02:19:59;52259.03;;;-146.96;93.52
39105;BME280;46464;51.154;13.812;2023-05-07T02:22:26;52265.16;;;-146.96;92.73
39105;BME280;46464;51.154;13.812;2023-05-07T02:24:52;52267.19;;;-146.96;92.61
39105;BME280;46464;51.154;13.812;2023-05-07T02:27:18;52261.09;;;-146.96;92.51
39105;BME280;46464;51.154;13.812;2023-05-07T02:29:45;52271.25;;;-146.96;92.16
39105;BME280;46464;51.154;13.812;2023-05-07T02:32:12;52238.69;;;-146.96;92.10
39105;BME280;46464;51.154;13.812;2023-05-07T02:34:39;52261.09;;;-146.96;92.02
39105;BME280;46464;51.154;13.812;2023-05-07T02:37:05;52281.44;;;-146.96;92.19
39105;BME280;46464;51.154;13.812;2023-05-07T02:39:32;52287.53;;;-146.96;92.43
39105;BME280;46464;51.154;13.812;2023-05-07T02:41:58;52265.16;;;-146.96;92.92
39105;BME280;46464;51.154;13.812;2023-05-07T02:44:24;52275.31;;;-146.96;93.68
39105;BME280;46464;51.154;13.812;2023-05-07T02:46:51;52295.66;;;-146.96;93.70
39105;BME280;46464;51.154;13.812;2023-05-07T02:49:17;52240.75;;;-146.96;93.54
39105;BME280;46464;51.154;13.812;2023-05-07T02:51:44;52295.66;;;-146.96;93.42
39105;BME280;46464;51.154;13.812;2023-05-07T02:54:10;52275.31;;;-146.96;93.00
39105;BME280;46464;51.154;13.812;2023-05-07T02:56:37;52279.41;;;-146.96;92.97
39105;BME280;46464;51.154;13.812;2023-05-07T02:59:03;52257.00;;;-146.96;92.71
39105;BME280;46464;51.154;13.812;2023-05-07T03:01:29;52252.94;;;-146.96;92.73
39105;BME280;46464;51.154;13.812;2023-05-07T03:03:56;52263.13;;;-146.96;93.63
39105;BME280;46464;51.154;13.812;2023-05-07T03:06:22;52236.66;;;-146.96;93.71
39105;BME280;46464;51.154;13.812;2023-05-07T03:08:49;52269.22;;;-146.96;93.97
39105;BME280;46464;51.154;13.812;2023-05-07T03:11:15;52291.59;;;-146.96;93.41
39105;BME280;46464;51.154;13.812;2023-05-07T03:13:42;52271.25;;;-146.96;92.29
39105;BME280;46464;51.154;13.812;2023-05-07T03:16:08;52313.97;;;-146.96;92.10
39105;BME280;46464;51.154;13.812;2023-05-07T03:18:35;52271.25;;;-146.96;92.13
39105;BME280;46464;51.154;13.812;2023-05-07T03:21:01;52279.41;;;-146.96;92.15
39105;BME280;46464;51.154;13.812;2023-05-07T03:23:28;52265.16;;;-146.96;92.26
39105;BME280;46464;51.154;13.812;2023-05-07T03:25:54;52281.44;;;-146.96;92.10
39105;BME280;46464;51.154;13.812;2023-05-07T03:28:20;52291.59;;;-146.96;92.07
39105;BME280;46464;51.154;13.812;2023-05-07T03:30:47;52269.22;;;-146.96;92.49
39105;BME280;46464;51.154;13.812;2023-05-07T03:33:13;52303.81;;;-146.96;92.76
39105;BME280;46464;51.154;13.812;2023-05-07T03:35:40;52265.16;;;-146.96;91.99
39105;BME280;46464;51.154;13.812;2023-05-07T03:38:07;52275.31;;;-146.96;92.29
39105;BME280;46464;51.154;13.812;2023-05-07T03:40:33;52265.16;;;-146.96;92.60
39105;BME280;46464;51.154;13.812;2023-05-07T03:43:00;52285.50;;;-146.96;92.70
39105;BME280;46464;51.154;13.812;2023-05-07T03:45:26;52297.72;;;-146.96;92.66
39105;BME280;46464;51.154;13.812;2023-05-07T03:47:53;52303.81;;;-146.96;93.06
39105;BME280;46464;51.154;13.812;2023-05-07T03:50:19;52293.63;;;-146.96;92.87
39105;BME280;46464;51.154;13.812;2023-05-07T03:52:46;52273.28;;;-146.96;93.03
39105;BME280;46464;51.154;13.812;2023-05-07T03:55:12;52269.22;;;-146.96;93.19
39105;BME280;46464;51.154;13.812;2023-05-07T03:57:39;52307.88;;;-146.96;93.49
39105;BME280;46464;51.154;13.812;2023-05-07T04:00:06;52309.91;;;-146.96;93.59
39105;BME280;46464;51.154;13.812;2023-05-07T04:02:33;52295.66;;;-146.96;93.65
39105;BME280;46464;51.154;13.812;2023-05-07T04:04:59;52277.34;;;-146.96;93.68
39105;BME280;46464;51.154;13.812;2023-05-07T04:07:26;52259.03;;;-146.96;93.64
39105;BME280;46464;51.154;13.812;2023-05-07T04:09:52;52287.53;;;-146.96;92.93
39105;BME280;46464;51.154;13.812;2023-05-07T04:12:19;52285.50;;;-146.96;93.02
39105;BME280;46464;51.154;13.812;2023-05-07T04:14:45;52263.13;;;-146.96;93.44
39105;BME280;46464;51.154;13.812;2023-05-07T04:17:11;52265.16;;;-146.96;93.65
39105;BME280;46464;51.154;13.812;2023-05-07T04:19:38;52299.75;;;-146.96;93.73
39105;BME280;46464;51.154;13.812;2023-05-07T04:22:04;52295.66;;;-146.96;93.76
39105;BME280;46464;51.154;13.812;2023-05-07T04:24:32;52257.00;;;-146.96;93.97
39105;BME280;46464;51.154;13.812;2023-05-07T04:26:59;52263.13;;;-146.96;94.00
39105;BME280;46464;51.154;13.812;2023-05-07T04:29:25;52281.44;;;-146.96;93.60
39105;BME280;46464;51.154;13.812;2023-05-07T04:31:52;52244.81;;;-146.96;92.62
39105;BME280;46464;51.154;13.812;2023-05-07T04:34:19;52277.34;;;-146.96;92.21
39105;BME280;46464;51.154;13.812;2023-05-07T04:36:45;52297.72;;;-146.96;92.45
39105;BME280;46464;51.154;13.812;2023-05-07T04:39:12;52289.56;;;-146.96;92.19
39105;BME280;46464;51.154;13.812;2023-05-07T04:41:38;52279.41;;;-146.96;91.90
39105;BME280;46464;51.154;13.812;2023-05-07T04:44:05;52297.72;;;-146.96;91.60
39105;BME280;46464;51.154;13.812;2023-05-07T04:46:32;52273.28;;;-146.96;91.68
39105;BME280;46464;51.154;13.812;2023-05-07T04:48:58;52250.91;;;-146.96;91.93
39105;BME280;46464;51.154;13.812;2023-05-07T04:51:25;52283.47;;;-146.96;91.69
39105;BME280;46464;51.154;13.812;2023-05-07T04:53:51;52275.31;;;-146.96;91.28
39105;BME280;46464;51.154;13.812;2023-05-07T04:56:18;52293.63;;;-146.96;91.08
39105;BME280;46464;51.154;13.812;2023-05-07T04:58:44;52254.97;;;-146.96;91.29
39105;BME280;46464;51.154;13.812;2023-05-07T05:01:11;52275.31;;;-146.96;91.36
39105;BME280;46464;51.154;13.812;2023-05-07T05:03:37;52289.56;;;-146.96;91.24
39105;BME280;46464;51.154;13.812;2023-05-07T05:06:05;52295.66;;;-146.96;91.00
39105;BME280;46464;51.154;13.812;2023-05-07T05:08:32;52281.44;;;-146.96;91.04
39105;BME280;46464;51.154;13.812;2023-05-07T05:11:00;52289.56;;;-146.96;90.67
39105;BME280;46464;51.154;13.812;2023-05-07T05:13:27;52273.28;;;-146.96;90.88
39105;BME280;46464;51.154;13.812;2023-05-07T05:15:53;52287.53;;;-146.96;90.23
39105;BME280;46464;51.154;13.812;2023-05-07T05:18:20;52279.41;;;-146.96;89.67
39105;BME280;46464;51.154;13.812;2023-05-07T05:20:47;52259.03;;;-146.96;89.21
39105;BME280;46464;51.154;13.812;2023-05-07T05:23:13;52281.44;;;-146.96;89.09
39105;BME280;46464;51.154;13.812;2023-05-07T05:25:39;52297.72;;;-146.96;88.72
39105;BME280;46464;51.154;13.812;2023-05-07T05:28:06;52261.09;;;-146.96;87.89
39105;BME280;46464;51.154;13.812;2023-05-07T05:30:33;52261.09;;;-146.96;86.92
39105;BME280;46464;51.154;13.812;2023-05-07T05:32:59;52287.53;;;-146.96;87.22
39105;BME280;46464;51.154;13.812;2023-05-07T05:35:26;52283.47;;;-146.96;88.57
39105;BME280;46464;51.154;13.812;2023-05-07T05:37:52;52303.81;;;-146.96;89.17
39105;BME280;46464;51.154;13.812;2023-05-07T05:40:19;52269.22;;;-146.96;88.98
39105;BME280;46464;51.154;13.812;2023-05-07T05:42:46;52301.78;;;-146.96;88.99
39105;BME280;46464;51.154;13.812;2023-05-07T05:45:13;52279.41;;;-146.96;89.46
39105;BME280;46464;51.154;13.812;2023-05-07T05:47:40;52295.66;;;-146.96;89.29
39105;BME280;46464;51.154;13.812;2023-05-07T05:50:07;52275.31;;;-146.96;89.22
39105;BME280;46464;51.154;13.812;2023-05-07T05:52:34;52291.59;;;-146.96;89.38
39105;BME280;46464;51.154;13.812;2023-05-07T05:55:00;52287.53;;;-146.96;89.29
39105;BME280;46464;51.154;13.812;2023-05-07T05:57:27;52313.97;;;-146.96;89.27
39105;BME280;46464;51.154;13.812;2023-05-07T05:59:54;52287.53;;;-146.96;88.69
39105;BME280;46464;51.154;13.812;2023-05-07T06:02:21;52305.84;;;-146.96;88.22
39105;BME280;46464;51.154;13.812;2023-05-07T06:04:48;52299.75;;;-146.96;88.56
39105;BME280;46464;51.154;13.812;2023-05-07T06:07:14;52271.25;;;-146.96;88.12
39105;BME280;46464;51.154;13.812;2023-05-07T06:09:41;52301.78;;;-146.96;87.83
39105;BME280;46464;51.154;13.812;2023-05-07T06:12:07;52301.78;;;-146.96;87.86
39105;BME280;46464;51.154;13.812;2023-05-07T06:14:33;52271.25;;;-146.96;87.17
39105;BME280;46464;51.154;13.812;2023-05-07T06:17:00;52275.31;;;-146.96;87.70
39105;BME280;46464;51.154;13.812;2023-05-07T06:19:26;52313.97;;;-146.96;87.85
39105;BME280;46464;51.154;13.812;2023-05-07T06:21:54;52287.53;;;-146.96;87.55
39105;BME280;46464;51.154;13.812;2023-05-07T06:24:22;52244.81;;;-146.96;87.17
39105;BME280;46464;51.154;13.812;2023-05-07T06:26:49;52263.13;;;-146.96;86.97
39105;BME280;46464;51.154;13.812;2023-05-07T06:29:15;52295.66;;;-146.96;87.07
39105;BME280;46464;51.154;13.812;2023-05-07T06:31:42;52271.25;;;-146.96;87.01
39105;BME280;46464;51.154;13.812;2023-05-07T06:34:08;52330.25;;;-146.96;86.71
39105;BME280;46464;51.154;13.812;2023-05-07T06:36:35;52273.28;;;-146.96;86.30
39105;BME280;46464;51.154;13.812;2023-05-07T06:39:01;52293.63;;;-146.96;85.98
39105;BME280;46464;51.154;13.812;2023-05-07T06:41:28;52305.84;;;-146.96;85.90
39105;BME280;46464;51.154;13.812;2023-05-07T06:43:54;52267.19;;;-146.96;85.49
39105;BME280;46464;51.154;13.812;2023-05-07T06:46:21;52279.41;;;-146.96;85.94
39105;BME280;46464;51.154;13.812;2023-05-07T06:48:47;52318.06;;;-146.96;85.83
39105;BME280;46464;51.154;13.812;2023-05-07T06:51:14;52273.28;;;-146.96;85.65
39105;BME280;46464;51.154;13.812;2023-05-07T06:53:40;52259.03;;;-146.96;85.10
39105;BME280;46464;51.154;13.812;2023-05-07T06:56:07;52273.28;;;-146.96;84.42
39105;BME280;46464;51.154;13.812;2023-05-07T06:58:33;52252.94;;;-146.96;83.67
39105;BME280;46464;51.154;13.812;2023-05-07T07:01:00;52265.16;;;-146.96;83.59
39105;BME280;46464;51.154;13.812;2023-05-07T07:03:26;52250.91;;;-146.96;83.32
39105;BME280;46464;51.154;13.812;2023-05-07T07:05:54;52326.19;;;-146.96;81.31
39105;BME280;46464;51.154;13.812;2023-05-07T07:08:21;52261.09;;;-146.96;80.86
39105;BME280;46464;51.154;13.812;2023-05-07T07:10:48;52259.03;;;-146.96;80.16
39105;BME280;46464;51.154;13.812;2023-05-07T07:13:14;52322.13;;;-146.96;80.33
39105;BME280;46464;51.154;13.812;2023-05-07T07:15:41;52303.81;;;-146.96;79.42
39105;BME280;46464;51.154;13.812;2023-05-07T07:18:08;52248.88;;;-146.96;78.38
39105;BME280;46464;51.154;13.812;2023-05-07T07:20:34;52267.19;;;-146.96;78.17
39105;BME280;46464;51.154;13.812;2023-05-07T07:23:01;52265.16;;;-146.96;76.57
39105;BME280;46464;51.154;13.812;2023-05-07T07:25:27;52257.00;;;-146.96;75.76
39105;BME280;46464;51.154;13.812;2023-05-07T07:27:54;52263.13;;;-146.96;76.77
39105;BME280;46464;51.154;13.812;2023-05-07T07:30:20;52271.25;;;-146.96;77.63
39105;BME280;46464;51.154;13.812;2023-05-07T07:32:46;52232.59;;;-146.96;77.18
39105;BME280;46464;51.154;13.812;2023-05-07T07:35:13;52240.75;;;-146.96;77.80
39105;BME280;46464;51.154;13.812;2023-05-07T07:37:40;52252.94;;;-146.96;78.36
39105;BME280;46464;51.154;13.812;2023-05-07T07:40:06;52250.91;;;-146.96;77.00
39105;BME280;46464;51.154;13.812;2023-05-07T07:42:33;52234.63;;;-146.96;76.94
39105;BME280;46464;51.154;13.812;2023-05-07T07:44:59;52277.34;;;-146.96;76.89
39105;BME280;46464;51.154;13.812;2023-05-07T07:47:26;52275.31;;;-146.96;77.24
39105;BME280;46464;51.154;13.812;2023-05-07T07:49:52;52297.72;;;-146.96;77.53
39105;BME280;46464;51.154;13.812;2023-05-07T07:52:19;52285.50;;;-146.96;77.57
39105;BME280;46464;51.154;13.812;2023-05-07T07:54:46;52281.44;;;-146.96;78.12
39105;BME280;46464;51.154;13.812;2023-05-07T07:57:12;52277.34;;;-146.96;77.44
39105;BME280;46464;51.154;13.812;2023-05-07T07:59:39;52273.28;;;-146.96;78.30
39105;BME280;46464;51.154;13.812;2023-05-07T08:02:05;52275.31;;;-146.96;78.82
39105;BME280;46464;51.154;13.812;2023-05-07T08:04:32;52257.00;;;-146.96;78.70
39105;BME280;46464;51.154;13.812;2023-05-07T08:06:59;52236.66;;;-146.96;78.25
39105;BME280;46464;51.154;13.812;2023-05-07T08:09:26;52283.47;;;-146.96;78.02
39105;BME280;46464;51.154;13.812;2023-05-07T08:11:52;52234.63;;;-146.96;78.02
39105;BME280;46464;51.154;13.812;2023-05-07T08:14:19;52236.66;;;-146.96;77.19
39105;BME280;46464;51.154;13.812;2023-05-07T08:16:45;52254.97;;;-146.96;77.34
39105;BME280;46464;51.154;13.812;2023-05-07T08:19:12;52291.59;;;-146.96;78.06
39105;BME280;46464;51.154;13.812;2023-05-07T08:21:39;52261.09;;;-146.96;77.79
39105;BME280;46464;51.154;13.812;2023-05-07T08:24:06;52261.09;;;-146.96;78.06
39105;BME280;46464;51.154;13.812;2023-05-07T08:26:32;52244.81;;;-146.96;78.43
39105;BME280;46464;51.154;13.812;2023-05-07T08:28:59;52271.25;;;-146.96;78.13
39105;BME280;46464;51.154;13.812;2023-05-07T08:31:25;52230.56;;;-146.96;78.98
39105;BME280;46464;51.154;13.812;2023-05-07T08:33:52;52230.56;;;-146.96;78.41
39105;BME280;46464;51.154;13.812;2023-05-07T08:36:18;52238.69;;;-146.96;78.59
39105;BME280;46464;51.154;13.812;2023-05-07T08:38:45;52279.41;;;-146.96;78.44
39105;BME280;46464;51.154;13.812;2023-05-07T08:41:12;52250.91;;;-146.96;77.46
39105;BME280;46464;51.154;13.812;2023-05-07T08:43:40;52248.88;;;-146.96;77.41
39105;BME280;46464;51.154;13.812;2023-05-07T08:46:09;52236.66;;;-146.96;77.73
39105;BME280;46464;51.154;13.812;2023-05-07T08:48:36;52259.03;;;-146.96;77.90
39105;BME280;46464;51.154;13.812;2023-05-07T08:51:03;52244.81;;;-146.96;77.96
39105;BME280;46464;51.154;13.812;2023-05-07T08:53:29;52259.03;;;-146.96;77.64
39105;BME280;46464;51.154;13.812;2023-05-07T08:55:56;52263.13;;;-146.96;77.61
39105;BME280;46464;51.154;13.812;2023-05-07T08:58:23;52259.03;;;-146.96;76.93
39105;BME280;46464;51.154;13.812;2023-05-07T09:00:50;52230.56;;;-146.96;77.13
39105;BME280;46464;51.154;13.812;2023-05-07T09:03:19;52222.41;;;-146.96;76.85
39105;BME280;46464;51.154;13.812;2023-05-07T09:05:45;52259.03;;;-146.96;76.55
39105;BME280;46464;51.154;13.812;2023-05-07T09:08:14;52246.84;;;-146.96;76.57
39105;BME280;46464;51.154;13.812;2023-05-07T09:10:41;52214.28;;;-146.96;76.17
39105;BME280;46464;51.154;13.812;2023-05-07T09:13:07;52257.00;;;-146.96;76.29
39105;BME280;46464;51.154;13.812;2023-05-07T09:15:34;52254.97;;;-146.96;75.66
39105;BME280;46464;51.154;13.812;2023-05-07T09:18:01;52216.31;;;-146.96;76.16
39105;BME280;46464;51.154;13.812;2023-05-07T09:20:30;52293.63;;;-146.96;75.74
39105;BME280;46464;51.154;13.812;2023-05-07T09:22:56;52238.69;;;-146.96;75.03
39105;BME280;46464;51.154;13.812;2023-05-07T09:25:30;52236.66;;;-146.96;75.86
39105;BME280;46464;51.154;13.812;2023-05-07T09:27:59;52263.13;;;-146.96;75.20
39105;BME280;46464;51.154;13.812;2023-05-07T09:30:30;52236.66;;;-146.96;75.19
39105;BME280;46464;51.154;13.812;2023-05-07T09:33:01;52252.94;;;-146.96;75.12
39105;BME280;46464;51.154;13.812;2023-05-07T09:35:29;52277.34;;;-146.96;74.86
39105;BME280;46464;51.154;13.812;2023-05-07T09:37:58;52261.09;;;-146.96;75.11
39105;BME280;46464;51.154;13.812;2023-05-07T09:40:29;52269.22;;;-146.96;74.48
39105;BME280;46464;51.154;13.812;2023-05-07T09:42:56;52236.66;;;-146.96;74.29
39105;BME280;46464;51.154;13.812;2023-05-07T09:45:26;52261.09;;;-146.96;74.36
39105;BME280;46464;51.154;13.812;2023-05-07T09:47:57;52224.47;;;-146.96;74.19
39105;BME280;46464;51.154;13.812;2023-05-07T09:50:30;52259.03;;;-146.96;74.05
39105;BME280;46464;51.154;13.812;2023-05-07T09:52:58;52226.50;;;-146.96;74.30
39105;BME280;46464;51.154;13.812;2023-05-07T09:55:25;52259.03;;;-146.96;74.26
39105;BME280;46464;51.154;13.812;2023-05-07T09:57:53;52252.94;;;-146.96;74.12
39105;BME280;46464;51.154;13.812;2023-05-07T10:00:20;52232.59;;;-146.96;73.91
39105;BME280;46464;51.154;13.812;2023-05-07T10:02:51;52234.63;;;-146.96;73.33
39105;BME280;46464;51.154;13.812;2023-05-07T10:05:19;52232.59;;;-146.96;73.58
39105;BME280;46464;51.154;13.812;2023-05-07T10:07:47;52240.75;;;-146.96;71.81
39105;BME280;46464;51.154;13.812;2023-05-07T10:10:14;52238.69;;;-146.96;71.07
39105;BME280;46464;51.154;13.812;2023-05-07T10:12:44;52252.94;;;-146.96;71.75
39105;BME280;46464;51.154;13.812;2023-05-07T10:15:11;52216.31;;;-146.96;71.73
39105;BME280;46464;51.154;13.812;2023-05-07T10:17:39;52248.88;;;-146.96;71.08
39105;BME280;46464;51.154;13.812;2023-05-07T10:20:07;52212.25;;;-146.96;70.26
39105;BME280;46464;51.154;13.812;2023-05-07T10:22:38;52232.59;;;-146.96;70.89
39105;BME280;46464;51.154;13.812;2023-05-07T10:25:10;52216.31;;;-146.96;71.00
39105;BME280;46464;51.154;13.812;2023-05-07T10:27:40;52250.91;;;-146.96;71.46
39105;BME280;46464;51.154;13.812;2023-05-07T10:30:21;52212.25;;;-146.96;70.50
39105;BME280;46464;51.154;13.812;2023-05-07T10:32:59;52222.41;;;-146.96;70.97
39105;BME280;46464;51.154;13.812;2023-05-07T10:35:42;52200.03;;;-146.96;71.26
39105;BME280;46464;51.154;13.812;2023-05-07T10:38:09;52195.97;;;-146.96;70.64
39105;BME280;46464;51.154;13.812;2023-05-07T10:40:36;52202.06;;;-146.96;71.04
39105;BME280;46464;51.154;13.812;2023-05-07T10:43:04;52202.06;;;-146.96;71.63
39105;BME280;46464;51.154;13.812;2023-05-07T10:45:35;52181.72;;;-146.96;70.93
39105;BME280;46464;51.154;13.812;2023-05-07T10:51:21;52226.50;;;-146.96;68.99
39105;BME280;46464;51.154;13.812;2023-05-07T10:53:48;52167.50;;;-146.96;68.11
39105;BME280;46464;51.154;13.812;2023-05-07T10:58:44;52159.34;;;-146.96;66.07
39105;BME280;46464;51.154;13.812;2023-05-07T11:01:10;52151.22;;;-146.96;66.26
39105;BME280;46464;51.154;13.812;2023-05-07T11:04:14;52143.06;;;-146.96;65.57
39105;BME280;46464;51.154;13.812;2023-05-07T11:06:41;52161.38;;;-146.96;66.40
39105;BME280;46464;51.154;13.812;2023-05-07T11:09:07;52143.06;;;-146.96;66.65
39105;BME280;46464;51.154;13.812;2023-05-07T11:11:49;52193.94;;;-146.96;66.05
39105;BME280;46464;51.154;13.812;2023-05-07T11:14:54;52143.06;;;-146.96;66.51
39105;BME280;46464;51.154;13.812;2023-05-07T11:17:21;52167.50;;;-146.96;66.46
39105;BME280;46464;51.154;13.812;2023-05-07T11:19:55;52126.78;;;-146.96;66.83
39105;BME280;46464;51.154;13.812;2023-05-07T11:25:03;52118.66;;;-146.96;65.08
39105;BME280;46464;51.154;13.812;2023-05-07T11:27:29;52116.63;;;-146.96;64.38
39105;BME280;46464;51.154;13.812;2023-05-07T11:29:56;52110.53;;;-146.96;63.73
39105;BME280;46464;51.154;13.812;2023-05-07T11:32:23;52132.91;;;-146.96;64.66
39105;BME280;46464;51.154;13.812;2023-05-07T11:34:52;52118.66;;;-146.96;64.75
39105;BME280;46464;51.154;13.812;2023-05-07T11:37:19;52116.63;;;-146.96;65.26
39105;BME280;46464;51.154;13.812;2023-05-07T11:39:46;52151.22;;;-146.96;63.97
39105;BME280;46464;51.154;13.812;2023-05-07T11:42:33;52122.72;;;-146.96;64.28
39105;BME280;46464;51.154;13.812;2023-05-07T11:45:01;52084.06;;;-146.96;63.91
39105;BME280;46464;51.154;13.812;2023-05-07T11:47:29;52118.66;;;-146.96;63.07
39105;BME280;46464;51.154;13.812;2023-05-07T11:49:56;52094.25;;;-146.96;62.96
39105;BME280;46464;51.154;13.812;2023-05-07T11:52:24;52086.09;;;-146.96;62.77
39105;BME280;46464;51.154;13.812;2023-05-07T11:54:52;52090.16;;;-146.96;62.98
39105;BME280;46464;51.154;13.812;2023-05-07T11:57:19;52094.25;;;-146.96;62.57
39105;BME280;46464;51.154;13.812;2023-05-07T11:59:46;52120.69;;;-146.96;62.60
39105;BME280;46464;51.154;13.812;2023-05-07T12:02:16;52088.13;;;-146.96;62.82
39105;BME280;46464;51.154;13.812;2023-05-07T12:04:44;52075.94;;;-146.96;63.47
39105;BME280;46464;51.154;13.812;2023-05-07T12:07:12;52100.34;;;-146.96;63.04
39105;BME280;46464;51.154;13.812;2023-05-07T12:09:43;52096.28;;;-146.96;61.66
39105;BME280;46464;51.154;13.812;2023-05-07T12:12:10;52147.13;;;-146.96;61.53
39105;BME280;46464;51.154;13.812;2023-05-07T12:14:38;52141.03;;;-146.96;62.23
39105;BME280;46464;51.154;13.812;2023-05-07T12:17:08;52157.31;;;-146.96;62.57
39105;BME280;46464;51.154;13.812;2023-05-07T12:19:35;52130.88;;;-146.96;62.59
39105;BME280;46464;51.154;13.812;2023-05-07T12:22:03;52130.88;;;-146.96;63.10
39105;BME280;46464;51.154;13.812;2023-05-07T12:24:47;52106.44;;;-146.96;62.72
39105;BME280;46464;51.154;13.812;2023-05-07T12:27:15;52061.69;;;-146.96;61.92
39105;BME280;46464;51.154;13.812;2023-05-07T12:29:46;52090.16;;;-146.96;61.64
39105;BME280;46464;51.154;13.812;2023-05-07T12:32:16;52130.88;;;-146.96;61.09
39105;BME280;46464;51.154;13.812;2023-05-07T12:34:44;52134.94;;;-146.96;61.58
39105;BME280;46464;51.154;13.812;2023-05-07T12:37:11;52098.31;;;-146.96;61.83
39105;BME280;46464;51.154;13.812;2023-05-07T12:39:48;52124.75;;;-146.96;60.79